Belcourt, Canada
Current Conditions -  °F | °C
As of 11:00 PM on Wednesday 22 Oct 2014 (Local Time) from CYVO Reporting Station
Clear Clear  
Wind Chill: 34°   Ceiling: Unl
Heat Index: 34°   Visibility: 9mi
Dew Point: 32°   Wind: 2mph
Humidity: 93%   Direction: NA
Pressure: 30.32"   Gusts: NA
Location:  48.4°N, 77.35°W
Report Text: CYVO 230300Z AUTO VRB02KT 9SM CLR 01/M00 A3032 RMK SLP287
Loading
Personal Weather Stations






























Interactive Weather Map
Tropical Storm Tracking
New forecast layout! Learn more

10-Day Weather Forecast

Advertisements
Track Severe Weather on mobile